createdAt,value
2019-06-19T00:01:53.744Z,19.53
2019-06-19T00:04:23.242Z,19.46
2019-06-19T00:06:52.856Z,19.42
2019-06-19T00:09:23.313Z,19.36
2019-06-19T00:11:53.079Z,19.41
2019-06-19T00:14:22.708Z,19.40
2019-06-19T00:16:53.577Z,19.45
2019-06-19T00:19:23.226Z,19.45
2019-06-19T00:21:53.285Z,19.51
2019-06-19T00:24:23.544Z,19.63
2019-06-19T00:26:58.094Z,19.61
2019-06-19T00:29:37.638Z,19.46
2019-06-19T00:32:00.576Z,19.39
2019-06-19T00:34:34.834Z,19.29
2019-06-19T00:37:04.431Z,19.19
2019-06-19T00:39:33.943Z,19.11
2019-06-19T00:42:03.518Z,19.04
2019-06-19T00:44:33.047Z,19.04
2019-06-19T00:47:02.552Z,18.98
2019-06-19T00:49:32.070Z,18.98
2019-06-19T00:52:01.717Z,19.00
2019-06-19T00:54:32.831Z,19.00
2019-06-19T00:57:04.065Z,19.08
2019-06-19T00:59:33.629Z,19.23
2019-06-19T01:02:03.160Z,19.23
2019-06-19T01:04:32.660Z,19.21
2019-06-19T01:07:02.152Z,19.38
2019-06-19T01:09:31.679Z,19.32
2019-06-19T01:12:01.458Z,19.24
2019-06-19T01:14:31.416Z,19.14
2019-06-19T01:17:01.152Z,19.03
2019-06-19T01:19:31.500Z,18.95
2019-06-19T01:22:01.312Z,18.80
2019-06-19T01:24:31.624Z,18.70
2019-06-19T01:27:01.838Z,18.62
2019-06-19T01:29:32.407Z,18.54
2019-06-19T01:32:01.914Z,18.46
2019-06-19T01:34:32.050Z,18.42
2019-06-19T01:37:01.704Z,18.47
2019-06-19T01:39:31.607Z,18.43
2019-06-19T01:42:01.360Z,18.51
2019-06-19T01:44:31.080Z,18.56
2019-06-19T01:47:02.030Z,18.48
2019-06-19T01:49:31.738Z,18.45
2019-06-19T01:52:01.773Z,18.56
2019-06-19T01:54:32.230Z,18.58
2019-06-19T01:57:01.923Z,18.61
2019-06-19T01:59:31.403Z,18.74
2019-06-19T02:02:01.275Z,19.27
2019-06-19T02:04:31.489Z,19.62
2019-06-19T02:07:01.221Z,19.86
2019-06-19T02:09:30.982Z,19.94
2019-06-19T02:12:01.347Z,19.98
2019-06-19T02:14:31.639Z,19.96
2019-06-19T02:17:01.489Z,19.94
2019-06-19T02:19:40.039Z,19.92
2019-06-19T02:22:02.761Z,19.88
2019-06-19T02:24:32.287Z,19.76
2019-06-19T02:27:02.246Z,19.70
2019-06-19T02:29:31.738Z,19.75
2019-06-19T02:32:02.319Z,19.62
2019-06-19T02:34:32.623Z,19.57
2019-06-19T02:37:02.499Z,19.44
2019-06-19T02:39:32.005Z,19.31
2019-06-19T02:42:01.518Z,19.13
2019-06-19T02:44:31.087Z,18.98
2019-06-19T02:47:00.830Z,18.98
2019-06-19T02:49:30.508Z,18.92
2019-06-19T02:52:00.084Z,18.86
2019-06-19T02:54:29.647Z,18.82
2019-06-19T02:56:59.286Z,18.68
2019-06-19T02:59:28.865Z,18.61
2019-06-19T03:01:58.417Z,18.58
2019-06-19T03:04:28.030Z,18.63
2019-06-19T03:06:57.530Z,18.64
2019-06-19T03:09:27.114Z,18.60
2019-06-19T03:11:56.708Z,18.68
2019-06-19T03:14:26.168Z,18.68
2019-06-19T03:16:55.699Z,18.64
2019-06-19T03:19:25.199Z,18.57
2019-06-19T03:21:54.732Z,18.48
2019-06-19T03:24:24.234Z,18.62
2019-06-19T03:26:53.756Z,18.56
2019-06-19T03:29:23.267Z,18.50
2019-06-19T03:31:52.767Z,18.47
2019-06-19T03:34:22.658Z,18.44
2019-06-19T03:36:52.300Z,18.32
2019-06-19T03:39:21.877Z,18.32
2019-06-19T03:41:51.516Z,18.30
2019-06-19T03:44:21.038Z,18.29
2019-06-19T03:46:50.525Z,18.28
2019-06-19T03:49:20.142Z,18.26
2019-06-19T03:51:49.647Z,18.26
2019-06-19T03:54:19.235Z,18.24
2019-06-19T03:56:48.721Z,18.20
2019-06-19T03:59:18.313Z,18.19
2019-06-19T04:01:49.906Z,18.32
2019-06-19T04:04:19.600Z,18.31
2019-06-19T04:06:49.182Z,18.29
2019-06-19T04:09:18.670Z,18.27
2019-06-19T04:11:48.188Z,18.39
2019-06-19T04:14:17.738Z,18.46
2019-06-19T04:16:47.238Z,18.49
2019-06-19T04:19:16.750Z,18.77
2019-06-19T04:21:46.260Z,18.83
2019-06-19T04:24:15.854Z,18.98
2019-06-19T04:26:45.498Z,18.90
2019-06-19T04:29:22.788Z,18.95
2019-06-19T04:32:05.196Z,19.14
2019-06-19T04:34:23.966Z,19.40
2019-06-19T04:36:53.535Z,19.48
2019-06-19T04:39:23.126Z,19.52
2019-06-19T04:41:52.711Z,19.78
2019-06-19T04:44:23.837Z,19.94
2019-06-19T04:46:53.476Z,20.13
2019-06-19T04:49:23.068Z,20.25
2019-06-19T04:51:52.596Z,20.30
2019-06-19T04:54:22.080Z,20.46
2019-06-19T04:56:51.793Z,20.47
2019-06-19T04:59:21.745Z,20.52
2019-06-19T05:01:51.933Z,20.71
2019-06-19T05:04:23.350Z,20.79
2019-06-19T05:06:53.075Z,20.87
2019-06-19T05:09:25.493Z,20.92
2019-06-19T05:11:55.060Z,20.86
2019-06-19T05:14:24.595Z,21.08
2019-06-19T05:17:00.332Z,21.19
2019-06-19T05:19:29.871Z,21.17
2019-06-19T05:21:59.398Z,21.20
2019-06-19T05:24:28.894Z,21.32
2019-06-19T05:26:58.426Z,21.44
2019-06-19T05:29:27.911Z,21.40
2019-06-19T05:31:57.503Z,21.55
2019-06-19T05:34:27.070Z,21.67
2019-06-19T05:36:56.572Z,21.69
2019-06-19T05:39:26.223Z,21.80
2019-06-19T05:41:55.806Z,21.94
2019-06-19T05:44:25.403Z,21.90
2019-06-19T05:46:55.269Z,22.06
2019-06-19T05:49:24.779Z,22.26
2019-06-19T05:51:54.287Z,22.29
2019-06-19T05:54:23.789Z,22.42
2019-06-19T05:56:53.449Z,22.61
2019-06-19T05:59:22.973Z,22.81
2019-06-19T06:01:52.546Z,22.81
2019-06-19T06:04:22.088Z,23.04
2019-06-19T06:06:51.650Z,23.25
2019-06-19T06:09:21.123Z,23.39
2019-06-19T06:11:50.676Z,23.47
2019-06-19T06:14:20.273Z,23.49
2019-06-19T06:16:49.777Z,23.64
2019-06-19T06:19:19.328Z,23.71
2019-06-19T06:21:50.519Z,23.93
2019-06-19T06:24:19.998Z,24.08
2019-06-19T06:26:49.726Z,24.15
2019-06-19T06:29:19.250Z,24.30
2019-06-19T06:31:48.809Z,24.42
2019-06-19T06:34:18.399Z,24.61
2019-06-19T06:36:47.892Z,24.87
2019-06-19T06:39:17.473Z,24.98
2019-06-19T06:41:46.950Z,25.15
2019-06-19T06:44:16.526Z,25.24
2019-06-19T06:46:46.096Z,25.25
2019-06-19T06:49:15.679Z,25.41
2019-06-19T06:51:45.188Z,25.50
2019-06-19T06:54:14.699Z,25.61
2019-06-19T06:56:44.279Z,25.86
2019-06-19T06:59:13.766Z,26.03
2019-06-19T07:01:43.302Z,26.19
2019-06-19T07:04:12.798Z,26.38
2019-06-19T07:06:42.287Z,26.57
2019-06-19T07:09:11.785Z,26.65
2019-06-19T07:11:41.289Z,26.63
2019-06-19T07:14:10.793Z,26.94
2019-06-19T07:16:40.308Z,27.24
2019-06-19T07:19:09.868Z,27.54
2019-06-19T07:21:39.430Z,28.36
2019-06-19T07:24:08.942Z,28.40
2019-06-19T07:26:52.222Z,29.28
2019-06-19T07:29:09.728Z,29.70
2019-06-19T07:31:39.359Z,30.09
2019-06-19T07:34:08.890Z,30.40
2019-06-19T07:36:38.398Z,30.70
2019-06-19T07:39:07.895Z,31.12
2019-06-19T07:41:37.405Z,30.90
2019-06-19T07:44:07.048Z,32.17
2019-06-19T07:46:36.543Z,32.75
2019-06-19T07:49:06.117Z,33.12
2019-06-19T07:51:35.680Z,32.37
2019-06-19T07:54:05.182Z,32.18
2019-06-19T07:56:34.697Z,33.11
2019-06-19T07:59:04.324Z,32.91
2019-06-19T08:01:33.814Z,33.27
2019-06-19T08:04:03.314Z,34.80
2019-06-19T08:06:32.814Z,34.46
2019-06-19T08:09:02.435Z,33.11
2019-06-19T08:11:32.026Z,32.59
2019-06-19T08:14:01.609Z,32.08
2019-06-19T08:16:31.108Z,32.91
2019-06-19T08:19:03.827Z,32.84
2019-06-19T08:21:31.849Z,33.32
2019-06-19T08:24:01.350Z,34.08
2019-06-19T08:26:30.837Z,34.46
2019-06-19T08:29:00.385Z,35.14
2019-06-19T08:31:29.896Z,34.69
2019-06-19T08:34:13.294Z,34.54
2019-06-19T08:36:30.608Z,34.95
2019-06-19T08:39:00.187Z,34.31
2019-06-19T08:41:29.690Z,35.05
2019-06-19T08:43:59.222Z,34.46
2019-06-19T08:46:31.884Z,33.56
2019-06-19T08:48:59.950Z,32.83
2019-06-19T08:51:29.512Z,31.66
2019-06-19T08:53:59.042Z,31.86
2019-06-19T08:56:28.568Z,32.71
2019-06-19T08:58:58.094Z,33.93
2019-06-19T09:01:27.715Z,33.86
2019-06-19T09:03:57.217Z,35.41
2019-06-19T09:06:26.776Z,35.37
2019-06-19T09:08:56.493Z,34.68
2019-06-19T09:11:26.123Z,36.06
2019-06-19T09:13:55.707Z,36.20
2019-06-19T09:16:25.184Z,35.97
2019-06-19T09:18:54.752Z,36.23
2019-06-19T09:21:24.341Z,37.19
2019-06-19T09:23:53.882Z,35.45
2019-06-19T09:26:24.198Z,34.33
2019-06-19T09:28:54.353Z,33.91
2019-06-19T09:31:23.889Z,32.83
2019-06-19T09:33:53.459Z,32.10
2019-06-19T09:36:22.957Z,33.75
2019-06-19T09:38:52.464Z,33.44
2019-06-19T09:41:21.961Z,33.23
2019-06-19T09:43:51.489Z,32.63
2019-06-19T09:46:20.988Z,32.61
2019-06-19T09:48:50.652Z,33.85
2019-06-19T09:51:20.200Z,33.35
2019-06-19T09:53:49.687Z,32.64
2019-06-19T09:56:19.198Z,32.56
2019-06-19T09:58:48.705Z,31.97
2019-06-19T10:01:18.265Z,31.49
2019-06-19T10:03:47.796Z,31.03
2019-06-19T10:06:17.293Z,30.84
2019-06-19T10:08:46.775Z,30.47
2019-06-19T10:11:16.382Z,29.48
2019-06-19T10:13:45.887Z,28.90
2019-06-19T10:16:15.385Z,28.16
2019-06-19T10:18:44.959Z,28.23
2019-06-19T10:21:14.580Z,28.39
2019-06-19T10:23:44.127Z,28.21
2019-06-19T10:26:13.636Z,28.22
2019-06-19T10:28:43.183Z,27.75
2019-06-19T10:31:12.824Z,27.76
2019-06-19T10:33:42.322Z,27.63
2019-06-19T10:36:11.830Z,27.42
2019-06-19T10:38:41.371Z,27.51
2019-06-19T10:41:11.028Z,27.43
2019-06-19T10:43:40.617Z,27.33
2019-06-19T10:46:10.233Z,26.84
2019-06-19T10:48:39.801Z,26.90
2019-06-19T10:51:09.570Z,26.31
2019-06-19T10:53:39.056Z,26.03
2019-06-19T10:56:08.567Z,25.67
2019-06-19T10:58:38.053Z,25.36
2019-06-19T11:01:07.563Z,25.37
2019-06-19T11:03:37.034Z,25.49
2019-06-19T11:06:06.608Z,25.44
2019-06-19T11:08:36.102Z,25.73
2019-06-19T11:11:05.705Z,26.24
2019-06-19T11:13:35.266Z,26.43
2019-06-19T11:16:05.051Z,26.85
2019-06-19T11:18:34.623Z,27.32
2019-06-19T11:21:04.355Z,27.44
2019-06-19T11:23:33.866Z,27.49
2019-06-19T11:26:03.348Z,27.13
2019-06-19T11:28:32.879Z,26.98
2019-06-19T11:31:02.366Z,26.77
2019-06-19T11:33:31.951Z,27.03
2019-06-19T11:36:01.515Z,26.86
2019-06-19T11:38:31.018Z,26.73
2019-06-19T11:41:00.530Z,26.61
2019-06-19T11:43:29.993Z,26.76
2019-06-19T11:45:59.509Z,27.11
2019-06-19T11:48:29.083Z,27.65
2019-06-19T11:50:58.598Z,28.36
2019-06-19T11:53:28.188Z,28.20
2019-06-19T11:55:57.685Z,28.27
2019-06-19T11:58:27.175Z,28.62
2019-06-19T12:00:56.670Z,28.22
2019-06-19T12:03:27.389Z,27.54
2019-06-19T12:06:12.276Z,27.74
2019-06-19T12:08:28.202Z,27.96
2019-06-19T12:10:57.726Z,28.54
2019-06-19T12:13:27.255Z,28.89
2019-06-19T12:15:56.869Z,29.24
2019-06-19T12:18:26.417Z,29.63
2019-06-19T12:20:55.901Z,29.72
2019-06-19T12:23:25.402Z,30.80
2019-06-19T12:25:54.900Z,31.64
2019-06-19T12:28:24.381Z,31.02
2019-06-19T12:30:53.904Z,32.88
2019-06-19T12:33:23.478Z,33.04
2019-06-19T12:35:53.011Z,32.61
2019-06-19T12:38:22.521Z,32.34
2019-06-19T12:40:52.058Z,31.21
2019-06-19T12:43:21.642Z,30.33
2019-06-19T12:45:51.195Z,30.37
2019-06-19T12:48:20.772Z,31.80
2019-06-19T12:50:50.363Z,31.38
2019-06-19T12:53:19.857Z,31.64
2019-06-19T12:55:49.364Z,31.50
2019-06-19T12:58:19.320Z,31.53
2019-06-19T13:00:48.844Z,31.26
2019-06-19T13:03:18.321Z,30.53
2019-06-19T13:05:47.906Z,30.64
2019-06-19T13:08:17.462Z,30.35
2019-06-19T13:10:50.201Z,29.62
2019-06-19T13:13:18.247Z,29.50
2019-06-19T13:15:47.818Z,29.97
2019-06-19T13:18:17.338Z,29.65
2019-06-19T13:20:46.893Z,29.73
2019-06-19T13:23:16.435Z,30.80
2019-06-19T13:25:45.939Z,31.09
2019-06-19T13:28:15.438Z,32.15
2019-06-19T13:30:44.925Z,33.38
2019-06-19T13:33:14.466Z,34.21
2019-06-19T13:35:43.963Z,32.59
2019-06-19T13:38:13.504Z,31.71
2019-06-19T13:40:43.056Z,32.13
2019-06-19T13:43:12.543Z,31.22
2019-06-19T13:45:42.055Z,30.84
2019-06-19T13:48:11.555Z,29.96
2019-06-19T13:50:41.056Z,29.42
2019-06-19T13:53:10.641Z,30.51
2019-06-19T13:55:40.234Z,30.33
2019-06-19T13:58:09.794Z,30.93
2019-06-19T14:00:39.299Z,30.16
2019-06-19T14:03:08.789Z,31.21
2019-06-19T14:05:38.358Z,31.55
2019-06-19T14:08:07.850Z,31.31
2019-06-19T14:10:37.331Z,31.93
2019-06-19T14:13:06.844Z,31.91
2019-06-19T14:15:36.410Z,31.20
2019-06-19T14:18:06.013Z,32.70
2019-06-19T14:20:35.575Z,34.87
2019-06-19T14:23:05.152Z,35.77
2019-06-19T14:25:34.653Z,35.08
2019-06-19T14:28:04.228Z,35.87
2019-06-19T14:30:33.861Z,36.47
2019-06-19T14:33:03.411Z,36.16
2019-06-19T14:35:32.932Z,35.78
2019-06-19T14:38:02.414Z,35.47
2019-06-19T14:40:31.931Z,35.63
2019-06-19T14:43:01.423Z,35.25
2019-06-19T14:45:30.988Z,35.27
2019-06-19T14:48:00.501Z,37.24
2019-06-19T14:50:30.072Z,36.98
2019-06-19T14:52:59.621Z,36.57
2019-06-19T14:55:29.101Z,37.81
2019-06-19T14:57:58.746Z,36.55
2019-06-19T15:00:53.351Z,36.29
2019-06-19T15:03:23.382Z,36.11
2019-06-19T15:05:52.960Z,37.29
2019-06-19T15:08:22.517Z,37.48
2019-06-19T15:10:52.151Z,37.35
2019-06-19T15:13:21.640Z,38.05
2019-06-19T15:15:51.184Z,37.87
2019-06-19T15:18:20.673Z,37.84
2019-06-19T15:20:50.181Z,37.87
2019-06-19T15:23:19.742Z,37.31
2019-06-19T15:25:49.202Z,36.41
2019-06-19T15:28:18.839Z,36.57
2019-06-19T15:30:48.361Z,37.53
2019-06-19T15:33:17.869Z,35.01
2019-06-19T15:35:47.417Z,35.87
2019-06-19T15:38:16.914Z,36.52
2019-06-19T15:40:46.487Z,35.42
2019-06-19T15:43:15.960Z,36.43
2019-06-19T15:45:47.377Z,36.21
2019-06-19T15:48:17.005Z,35.31
2019-06-19T15:50:46.607Z,35.96
2019-06-19T15:53:16.610Z,35.69
2019-06-19T15:55:46.649Z,36.76
2019-06-19T15:58:16.147Z,36.58
2019-06-19T16:00:45.691Z,36.57
2019-06-19T16:03:15.204Z,36.99
2019-06-19T16:05:44.916Z,37.44
2019-06-19T16:08:27.877Z,35.84
2019-06-19T16:10:50.509Z,37.11
2019-06-19T16:13:22.243Z,36.71
2019-06-19T16:15:52.027Z,37.11
2019-06-19T16:18:24.234Z,36.94
2019-06-19T16:20:53.776Z,35.70
2019-06-19T16:23:23.279Z,34.87
2019-06-19T16:25:53.252Z,34.30
2019-06-19T16:28:25.589Z,33.96
2019-06-19T16:30:55.078Z,32.77
2019-06-19T16:33:24.554Z,33.30
2019-06-19T16:35:54.074Z,32.68
2019-06-19T16:38:23.682Z,31.31
2019-06-19T16:40:55.967Z,30.30
2019-06-19T16:43:25.536Z,30.03
2019-06-19T16:45:55.314Z,29.41
2019-06-19T16:48:24.810Z,29.07
2019-06-19T16:50:55.969Z,28.98
2019-06-19T16:53:27.327Z,28.84
2019-06-19T16:55:56.823Z,28.87
2019-06-19T16:58:26.327Z,29.08
2019-06-19T17:00:55.883Z,29.28
2019-06-19T17:03:25.446Z,29.30
2019-06-19T17:05:55.048Z,29.52
2019-06-19T17:08:24.533Z,29.52
2019-06-19T17:10:54.048Z,29.48
2019-06-19T17:13:23.632Z,29.51
2019-06-19T17:15:53.123Z,29.48
2019-06-19T17:18:22.612Z,29.51
2019-06-19T17:20:52.156Z,29.35
2019-06-19T17:23:21.700Z,29.60
2019-06-19T17:25:51.135Z,28.88
2019-06-19T17:28:20.624Z,28.06
2019-06-19T17:30:50.222Z,27.25
2019-06-19T17:33:19.757Z,26.41
2019-06-19T17:35:49.254Z,25.91
2019-06-19T17:38:18.756Z,25.40
2019-06-19T17:40:48.262Z,25.33
2019-06-19T17:43:17.757Z,25.01
2019-06-19T17:45:47.521Z,24.71
2019-06-19T17:48:17.116Z,24.49
2019-06-19T17:50:48.013Z,23.80
2019-06-19T17:53:17.583Z,22.85
2019-06-19T17:55:47.267Z,22.37
2019-06-19T17:58:16.775Z,22.06
2019-06-19T18:00:46.425Z,22.04
2019-06-19T18:03:15.972Z,21.66
2019-06-19T18:05:45.545Z,20.85
2019-06-19T18:08:15.039Z,20.19
2019-06-19T18:10:44.697Z,19.62
2019-06-19T18:13:14.327Z,19.45
2019-06-19T18:15:43.909Z,19.41
2019-06-19T18:18:13.466Z,19.36
2019-06-19T18:20:43.042Z,19.28
2019-06-19T18:23:12.654Z,19.30
2019-06-19T18:25:42.526Z,19.23
2019-06-19T18:28:13.001Z,19.23
2019-06-19T18:30:53.321Z,19.25
2019-06-19T18:33:22.801Z,19.19
2019-06-19T18:35:52.495Z,19.10
2019-06-19T18:38:22.041Z,18.99
2019-06-19T18:40:51.755Z,18.83
2019-06-19T18:43:21.342Z,18.83
2019-06-19T18:45:51.843Z,18.87
2019-06-19T18:48:21.419Z,18.78
2019-06-19T18:50:50.905Z,18.90
2019-06-19T18:53:20.444Z,18.86
2019-06-19T18:55:50.070Z,18.89
2019-06-19T18:58:19.590Z,18.78
2019-06-19T19:00:49.265Z,18.73
2019-06-19T19:03:18.803Z,18.64
2019-06-19T19:05:48.287Z,18.61
2019-06-19T19:08:17.938Z,18.51
2019-06-19T19:10:47.461Z,18.53
2019-06-19T19:13:16.944Z,18.51
2019-06-19T19:15:46.476Z,18.56
2019-06-19T19:18:15.997Z,18.64
2019-06-19T19:20:45.732Z,18.63
2019-06-19T19:23:15.278Z,18.65
2019-06-19T19:25:44.769Z,18.59
2019-06-19T19:28:14.345Z,18.52
2019-06-19T19:30:43.932Z,18.49
2019-06-19T19:33:13.451Z,18.57
2019-06-19T19:35:43.070Z,18.55
2019-06-19T19:38:12.664Z,18.51
2019-06-19T19:40:42.200Z,18.57
2019-06-19T19:43:11.726Z,18.55
2019-06-19T19:45:41.311Z,18.52
2019-06-19T19:48:10.834Z,18.51
2019-06-19T19:50:40.342Z,18.49
2019-06-19T19:53:09.927Z,18.44
2019-06-19T19:55:39.418Z,18.42
2019-06-19T19:58:08.960Z,18.41
2019-06-19T20:00:42.121Z,18.38
2019-06-19T20:03:11.806Z,18.32
2019-06-19T20:05:41.416Z,18.33
2019-06-19T20:08:10.992Z,18.39
2019-06-19T20:10:46.531Z,18.38
2019-06-19T20:13:11.924Z,18.47
2019-06-19T20:15:42.487Z,18.48
2019-06-19T20:18:12.048Z,18.49
2019-06-19T20:20:41.593Z,18.47
2019-06-19T20:23:11.113Z,18.45
2019-06-19T20:25:40.694Z,18.47
2019-06-19T20:28:10.308Z,18.47
2019-06-19T20:30:40.006Z,18.46
2019-06-19T20:33:09.512Z,18.33
2019-06-19T20:35:39.037Z,18.28
2019-06-19T20:38:08.583Z,18.31
2019-06-19T20:40:38.170Z,18.31
2019-06-19T20:43:07.820Z,18.33
2019-06-19T20:45:37.300Z,18.32
2019-06-19T20:48:06.796Z,18.48
2019-06-19T20:50:36.875Z,18.46
2019-06-19T20:53:06.419Z,18.42
2019-06-19T20:55:36.248Z,18.47
2019-06-19T20:58:07.046Z,18.43
2019-06-19T21:00:39.118Z,18.39
2019-06-19T21:03:09.143Z,18.34
2019-06-19T21:05:39.019Z,18.33
2019-06-19T21:08:08.778Z,18.33
2019-06-19T21:10:38.715Z,18.31
2019-06-19T21:13:08.306Z,18.33
2019-06-19T21:15:44.908Z,18.32
2019-06-19T21:18:13.988Z,18.35
2019-06-19T21:20:46.636Z,18.34
2019-06-19T21:23:19.131Z,18.39
2019-06-19T21:25:49.305Z,18.56
2019-06-19T21:28:27.855Z,18.48
2019-06-19T21:31:08.299Z,18.56
2019-06-19T21:33:41.377Z,18.50
2019-06-19T21:36:12.978Z,18.41
2019-06-19T21:38:44.275Z,18.38
2019-06-19T21:41:15.532Z,18.46
2019-06-19T21:43:45.127Z,18.26
2019-06-19T21:46:14.611Z,18.34
2019-06-19T21:48:44.138Z,18.37
2019-06-19T21:51:28.307Z,18.48
2019-06-19T21:53:57.805Z,18.45
2019-06-19T21:56:27.337Z,18.44
2019-06-19T21:58:56.940Z,18.53
2019-06-19T22:01:27.011Z,18.51
2019-06-19T22:03:56.569Z,18.46
2019-06-19T22:06:26.171Z,18.44
2019-06-19T22:08:55.650Z,18.40
2019-06-19T22:11:25.744Z,18.35
2019-06-19T22:13:55.323Z,18.40
2019-06-19T22:16:25.082Z,18.42
2019-06-19T22:18:55.516Z,18.55
2019-06-19T22:21:25.100Z,18.51
2019-06-19T22:23:54.618Z,18.67
2019-06-19T22:26:24.175Z,18.86
2019-06-19T22:28:53.692Z,18.69
2019-06-19T22:31:23.227Z,18.70
2019-06-19T22:33:52.722Z,18.71
2019-06-19T22:36:22.398Z,18.79
2019-06-19T22:38:51.868Z,18.91
2019-06-19T22:41:21.537Z,18.70
2019-06-19T22:43:51.125Z,18.70
2019-06-19T22:46:20.711Z,18.61
2019-06-19T22:48:50.207Z,18.58
2019-06-19T22:51:20.617Z,18.51
2019-06-19T22:53:50.217Z,18.53
2019-06-19T22:56:20.276Z,18.52
2019-06-19T22:58:49.791Z,18.62
2019-06-19T23:01:20.707Z,18.55
2019-06-19T23:03:50.252Z,18.41
2019-06-19T23:06:19.808Z,18.31
2019-06-19T23:08:50.277Z,18.31
2019-06-19T23:11:19.832Z,18.05
2019-06-19T23:13:49.363Z,18.00
2019-06-19T23:16:18.909Z,18.04
2019-06-19T23:18:48.418Z,18.16
2019-06-19T23:21:17.915Z,17.95
2019-06-19T23:23:47.475Z,17.79
2019-06-19T23:26:17.012Z,17.71
2019-06-19T23:28:46.525Z,17.62
2019-06-19T23:31:16.032Z,17.56
2019-06-19T23:33:45.592Z,17.49
2019-06-19T23:36:15.105Z,17.48
2019-06-19T23:38:44.710Z,17.36
2019-06-19T23:41:14.269Z,17.38
2019-06-19T23:43:43.840Z,17.54
2019-06-19T23:46:13.330Z,17.56
2019-06-19T23:48:42.850Z,17.72
2019-06-19T23:51:12.339Z,17.63
2019-06-19T23:53:41.895Z,17.49
2019-06-19T23:56:13.587Z,17.36
2019-06-19T23:58:42.628Z,17.23
